createdAt,value
2022-11-12T00:00:08.011Z,65.05
2022-11-12T00:02:55.397Z,51.85
2022-11-12T00:05:42.806Z,56.02
2022-11-12T00:08:30.491Z,43.83
2022-11-12T00:11:18.035Z,44.00
2022-11-12T00:14:05.550Z,52.27
2022-11-12T00:16:52.766Z,45.80
2022-11-12T00:19:40.347Z,25.05
2022-11-12T00:22:27.878Z,45.15
2022-11-12T00:25:15.247Z,54.65
2022-11-12T00:28:05.306Z,43.95
2022-11-12T00:30:52.470Z,52.80
2022-11-12T00:33:44.190Z,56.25
2022-11-12T00:36:32.111Z,48.33
2022-11-12T00:39:19.509Z,43.85
2022-11-12T00:42:06.714Z,47.38
2022-11-12T00:44:54.217Z,55.63
2022-11-12T00:47:41.557Z,35.40
2022-11-12T00:50:29.226Z,43.30
2022-11-12T00:53:17.309Z,40.67
2022-11-12T00:56:07.304Z,36.17
2022-11-12T00:58:54.412Z,55.52
2022-11-12T01:01:41.928Z,48.25
2022-11-12T01:04:29.516Z,52.50
2022-11-12T01:07:17.063Z,77.45
2022-11-12T01:10:04.938Z,88.52
2022-11-12T01:12:52.299Z,92.75
2022-11-12T01:15:43.390Z,53.92
2022-11-12T01:18:30.960Z,41.37
2022-11-12T01:21:18.531Z,30.08
2022-11-12T01:24:05.862Z,36.08
2022-11-12T01:26:53.186Z,29.90
2022-11-12T01:29:41.129Z,42.08
2022-11-12T01:32:28.518Z,31.02
2022-11-12T01:35:16.120Z,43.20
2022-11-12T01:38:03.744Z,47.20
2022-11-12T01:40:51.181Z,48.08
2022-11-12T01:43:38.808Z,37.65
2022-11-12T01:46:29.371Z,57.93
2022-11-12T01:49:22.908Z,69.90
2022-11-12T01:52:19.389Z,50.83
2022-11-12T01:55:12.786Z,32.35
2022-11-12T01:58:03.354Z,61.30
2022-11-12T02:00:51.657Z,58.35
2022-11-12T02:03:38.791Z,60.67
2022-11-12T02:06:26.352Z,57.45
2022-11-12T02:09:14.868Z,56.60
2022-11-12T02:12:03.568Z,48.63
2022-11-12T02:14:50.761Z,70.45
2022-11-12T02:17:38.264Z,61.53
2022-11-12T02:20:25.787Z,52.70
2022-11-12T02:23:12.990Z,35.73
2022-11-12T02:26:03.414Z,41.35
2022-11-12T02:28:50.819Z,53.68
2022-11-12T02:31:38.124Z,72.67
2022-11-12T02:34:25.395Z,53.45
2022-11-12T02:37:12.651Z,52.35
2022-11-12T02:40:00.148Z,47.33
2022-11-12T02:42:47.354Z,54.63
2022-11-12T02:45:34.995Z,50.33
2022-11-12T02:48:22.207Z,34.13
2022-11-12T02:51:09.441Z,41.45
2022-11-12T02:53:56.766Z,46.75
2022-11-12T02:56:44.237Z,58.38
2022-11-12T02:59:31.640Z,55.65
2022-11-12T03:02:18.757Z,46.25
2022-11-12T03:05:06.443Z,70.47
2022-11-12T03:07:59.037Z,54.40
2022-11-12T03:10:46.761Z,39.70
2022-11-12T03:13:33.929Z,60.03
2022-11-12T03:16:21.142Z,75.40
2022-11-12T03:19:08.477Z,57.95
2022-11-12T03:21:55.708Z,30.95
2022-11-12T03:24:42.885Z,59.60
2022-11-12T03:27:30.376Z,74.65
2022-11-12T03:30:17.657Z,67.20
2022-11-12T03:33:06.059Z,36.20
2022-11-12T03:35:53.345Z,41.20
2022-11-12T03:38:40.525Z,39.70
2022-11-12T03:41:27.885Z,49.65
2022-11-12T03:44:15.223Z,33.95
2022-11-12T03:47:02.270Z,39.42
2022-11-12T03:49:49.606Z,38.63
2022-11-12T03:52:37.003Z,59.42
2022-11-12T03:55:26.316Z,48.58
2022-11-12T03:58:13.461Z,50.10
2022-11-12T04:01:01.336Z,43.28
2022-11-12T04:03:48.856Z,38.25
2022-11-12T04:06:54.485Z,45.28
2022-11-12T04:09:41.772Z,51.75
2022-11-12T04:12:46.974Z,48.13
2022-11-12T04:15:34.633Z,55.52
2022-11-12T04:18:39.916Z,43.78
2022-11-12T04:21:48.392Z,44.23
2022-11-12T04:24:55.841Z,61.88
2022-11-12T04:27:43.337Z,71.70
2022-11-12T04:30:30.578Z,73.28
2022-11-12T04:33:18.157Z,72.55
2022-11-12T04:36:05.627Z,75.22
2022-11-12T04:38:55.847Z,56.00
2022-11-12T04:42:01.364Z,53.90
2022-11-12T04:45:04.910Z,58.92
2022-11-12T04:47:52.192Z,95.07
2022-11-12T04:50:40.595Z,66.57
2022-11-12T04:53:28.972Z,83.10
2022-11-12T04:56:16.244Z,102.12
2022-11-12T04:59:03.729Z,63.58
2022-11-12T05:01:51.211Z,80.22
2022-11-12T05:04:38.826Z,87.65
2022-11-12T05:07:26.536Z,64.47
2022-11-12T05:10:13.770Z,87.15
2022-11-12T05:13:01.424Z,60.25
2022-11-12T05:15:48.586Z,58.70
2022-11-12T05:18:36.106Z,72.60
2022-11-12T05:21:43.615Z,55.83
2022-11-12T05:24:41.525Z,69.65
2022-11-12T05:27:21.705Z,49.00
2022-11-12T05:30:09.455Z,69.32
2022-11-12T05:32:57.153Z,76.82
2022-11-12T05:35:44.484Z,87.85
2022-11-12T05:38:32.089Z,71.20
2022-11-12T05:41:20.286Z,93.70
2022-11-12T05:44:08.141Z,50.88
2022-11-12T05:46:55.675Z,65.03
2022-11-12T05:49:43.161Z,82.62
2022-11-12T05:52:30.502Z,104.23
2022-11-12T05:55:17.685Z,69.37
2022-11-12T05:58:07.238Z,60.15
2022-11-12T06:00:54.278Z,61.50
2022-11-12T06:03:41.681Z,58.40
2022-11-12T06:06:28.790Z,72.10
2022-11-12T06:09:16.331Z,48.87
2022-11-12T06:12:05.342Z,46.68
2022-11-12T06:14:53.020Z,76.55
2022-11-12T06:17:40.496Z,57.67
2022-11-12T06:20:27.794Z,53.02
2022-11-12T06:23:15.060Z,59.77
2022-11-12T06:26:02.694Z,53.40
2022-11-12T06:28:50.581Z,51.95
2022-11-12T06:31:38.074Z,50.90
2022-11-12T06:34:25.501Z,55.70
2022-11-12T06:37:12.642Z,44.95
2022-11-12T06:39:59.711Z,43.38
2022-11-12T06:42:47.190Z,46.85
2022-11-12T06:45:34.718Z,34.88
2022-11-12T06:48:22.132Z,43.63
2022-11-12T06:51:12.702Z,33.10
2022-11-12T06:53:59.717Z,31.77
2022-11-12T06:56:47.006Z,30.37
2022-11-12T06:59:34.363Z,30.37
2022-11-12T07:02:21.803Z,28.83
2022-11-12T07:05:09.364Z,29.63
2022-11-12T07:07:56.670Z,36.20
2022-11-12T07:10:43.622Z,25.17
2022-11-12T07:13:32.801Z,24.35
2022-11-12T07:16:30.591Z,21.10
2022-11-12T07:19:13.218Z,21.40
2022-11-12T07:22:00.691Z,33.23
2022-11-12T07:24:47.954Z,25.17
2022-11-12T07:27:35.211Z,24.05
2022-11-12T07:30:22.689Z,13.80
2022-11-12T07:33:10.219Z,18.90
2022-11-12T07:36:03.079Z,25.97
2022-11-12T07:38:53.016Z,28.73
2022-11-12T07:41:40.405Z,48.70
2022-11-12T07:44:27.945Z,28.17
2022-11-12T07:47:15.111Z,27.25
2022-11-12T07:50:02.228Z,21.20
2022-11-12T07:52:50.264Z,22.30
2022-11-12T07:55:37.677Z,19.15
2022-11-12T07:58:26.008Z,23.20
2022-11-12T08:01:23.075Z,31.17
2022-11-12T08:04:13.455Z,46.35
2022-11-12T08:07:00.852Z,40.20
2022-11-12T08:09:48.582Z,32.35
2022-11-12T08:12:36.038Z,35.20
2022-11-12T08:15:23.720Z,33.08
2022-11-12T08:18:10.977Z,36.88
2022-11-12T08:21:02.145Z,39.85
2022-11-12T08:23:49.504Z,41.98
2022-11-12T08:26:36.979Z,33.45
2022-11-12T08:29:24.526Z,35.05
2022-11-12T08:32:11.807Z,40.98
2022-11-12T08:34:59.489Z,38.15
2022-11-12T08:37:46.679Z,31.48
2022-11-12T08:40:35.875Z,25.92
2022-11-12T08:43:23.145Z,25.88
2022-11-12T08:46:11.382Z,27.17
2022-11-12T08:48:58.600Z,31.93
2022-11-12T08:51:46.135Z,40.03
2022-11-12T08:54:33.476Z,35.40
2022-11-12T08:57:21.149Z,30.57
2022-11-12T09:00:09.928Z,32.25
2022-11-12T09:02:58.950Z,52.45
2022-11-12T09:05:46.230Z,28.60
2022-11-12T09:08:35.845Z,30.92
2022-11-12T09:11:23.353Z,22.82
2022-11-12T09:14:10.729Z,71.22
2022-11-12T09:16:58.222Z,28.00
2022-11-12T09:19:45.872Z,34.10
2022-11-12T09:22:33.398Z,48.40
2022-11-12T09:25:21.031Z,49.27
2022-11-12T09:28:17.555Z,24.50
2022-11-12T09:31:04.686Z,30.77
2022-11-12T09:33:51.965Z,29.65
2022-11-12T09:36:40.137Z,26.52
2022-11-12T09:39:27.399Z,27.25
2022-11-12T09:42:17.742Z,81.97
2022-11-12T09:45:14.089Z,35.35
2022-11-12T09:48:07.537Z,22.65
2022-11-12T09:51:16.200Z,62.98
2022-11-12T09:54:15.335Z,67.50
2022-11-12T09:57:03.149Z,34.13
2022-11-12T09:59:53.396Z,29.10
2022-11-12T10:02:46.562Z,47.35
2022-11-12T10:05:40.003Z,36.90
2022-11-12T10:08:42.740Z,73.15
2022-11-12T10:12:04.031Z,31.07
2022-11-12T10:15:02.621Z,42.08
2022-11-12T10:17:56.150Z,27.87
2022-11-12T10:20:56.091Z,28.55
2022-11-12T10:23:46.333Z,25.32
2022-11-12T10:26:34.785Z,26.25
2022-11-12T10:29:30.646Z,25.80
2022-11-12T10:32:18.307Z,32.08
2022-11-12T10:35:05.617Z,28.50
2022-11-12T10:38:08.237Z,27.73
2022-11-12T10:40:55.509Z,27.70
2022-11-12T10:43:45.899Z,31.93
2022-11-12T10:46:37.959Z,30.48
2022-11-12T10:49:26.067Z,25.92
2022-11-12T10:52:22.537Z,21.77
2022-11-12T10:55:25.421Z,24.92
2022-11-12T10:58:16.670Z,23.10
2022-11-12T11:01:15.548Z,24.00
2022-11-12T11:04:02.832Z,25.75
2022-11-12T11:06:53.433Z,20.95
2022-11-12T11:09:44.184Z,21.50
2022-11-12T11:12:33.861Z,21.77
2022-11-12T11:15:23.707Z,20.30
2022-11-12T11:18:14.761Z,21.60
2022-11-12T11:21:22.851Z,19.65
2022-11-12T11:24:29.944Z,21.60
2022-11-12T11:27:23.162Z,28.85
2022-11-12T11:30:19.724Z,24.12
2022-11-12T11:33:27.156Z,25.75
2022-11-12T11:36:35.708Z,24.60
2022-11-12T11:39:29.943Z,25.02
2022-11-12T11:42:36.849Z,28.12
2022-11-12T11:45:29.993Z,25.00
2022-11-12T11:48:23.200Z,24.45
2022-11-12T11:51:16.562Z,23.98
2022-11-12T11:54:16.134Z,21.57
2022-11-12T11:57:06.842Z,18.32
2022-11-12T12:00:06.217Z,21.50
2022-11-12T12:03:17.692Z,21.40
2022-11-12T12:06:19.940Z,19.98
2022-11-12T12:09:25.703Z,24.10
2022-11-12T12:12:16.022Z,23.80
2022-11-12T12:15:12.535Z,24.00
2022-11-12T12:18:22.466Z,28.23
2022-11-12T12:21:22.022Z,23.95
2022-11-12T12:24:15.427Z,24.72
2022-11-12T12:27:14.951Z,33.98
2022-11-12T12:30:14.135Z,26.57
2022-11-12T12:33:04.509Z,26.87
2022-11-12T12:36:00.907Z,26.80
2022-11-12T12:39:15.499Z,23.12
2022-11-12T12:42:11.634Z,22.60
2022-11-12T12:45:03.805Z,21.42
2022-11-12T12:47:52.897Z,21.35
2022-11-12T12:50:43.168Z,19.85
2022-11-12T12:53:33.387Z,22.27
2022-11-12T12:56:27.102Z,20.70
2022-11-12T12:59:22.790Z,22.52
2022-11-12T13:02:16.081Z,21.95
2022-11-12T13:05:06.058Z,22.45
2022-11-12T13:07:54.373Z,20.12
2022-11-12T13:10:47.465Z,20.30
2022-11-12T13:13:37.393Z,20.30
2022-11-12T13:16:53.038Z,20.77
2022-11-12T13:19:58.815Z,20.20
2022-11-12T13:22:49.388Z,21.02
2022-11-12T13:25:37.518Z,19.15
2022-11-12T13:28:25.335Z,21.73
2022-11-12T13:31:28.336Z,22.25
2022-11-12T13:34:21.606Z,20.48
2022-11-12T13:37:12.082Z,22.00
2022-11-12T13:40:02.719Z,23.60
2022-11-12T13:42:50.922Z,22.65
2022-11-12T13:45:53.918Z,22.80
2022-11-12T13:49:06.309Z,23.83
2022-11-12T13:51:56.778Z,23.40
2022-11-12T13:54:44.059Z,21.33
2022-11-12T13:57:33.603Z,22.50
2022-11-12T14:00:24.035Z,25.17
2022-11-12T14:03:14.368Z,23.95
2022-11-12T14:06:06.107Z,23.07
2022-11-12T14:09:06.666Z,27.30
2022-11-12T14:12:08.810Z,23.70
2022-11-12T14:15:17.698Z,24.67
2022-11-12T14:18:13.612Z,28.00
2022-11-12T14:21:03.890Z,28.75
2022-11-12T14:23:51.517Z,32.30
2022-11-12T14:26:42.060Z,28.67
2022-11-12T14:29:34.683Z,31.52
2022-11-12T14:32:19.915Z,27.07
2022-11-12T14:35:34.471Z,34.63
2022-11-12T14:38:30.600Z,31.40
2022-11-12T14:41:23.887Z,30.12
2022-11-12T14:44:14.413Z,32.73
2022-11-12T14:47:02.338Z,35.73
2022-11-12T14:49:51.236Z,39.27
2022-11-12T14:52:41.635Z,31.23
2022-11-12T14:55:32.334Z,32.15
2022-11-12T14:58:21.836Z,35.33
2022-11-12T15:04:25.404Z,77.80
2022-11-12T15:07:26.083Z,40.43
2022-11-12T15:10:32.630Z,61.53
2022-11-12T15:13:23.044Z,45.12
2022-11-12T15:16:12.935Z,56.05
2022-11-12T15:19:06.662Z,102.67
2022-11-12T15:21:56.111Z,91.65
2022-11-12T15:24:44.908Z,67.45
2022-11-12T15:27:38.419Z,88.80
2022-11-12T15:30:32.190Z,62.70
2022-11-12T15:33:22.445Z,165.10
2022-11-12T15:36:18.266Z,45.08
2022-11-12T15:39:07.806Z,97.27
2022-11-12T15:42:07.582Z,74.15
2022-11-12T15:45:00.811Z,50.05
2022-11-12T15:47:49.149Z,47.78
2022-11-12T15:50:36.565Z,40.33
2022-11-12T15:53:23.999Z,94.72
2022-11-12T15:56:14.711Z,50.80
2022-11-12T15:59:02.058Z,60.75
2022-11-12T16:01:49.646Z,101.25
2022-11-12T16:04:37.158Z,118.42
2022-11-12T16:07:24.280Z,84.77
2022-11-12T16:10:16.629Z,174.77
2022-11-12T16:13:05.860Z,62.75
2022-11-12T16:15:53.992Z,88.40
2022-11-12T16:18:41.481Z,78.57
2022-11-12T16:21:28.989Z,50.35
2022-11-12T16:24:16.506Z,68.75
2022-11-12T16:27:06.978Z,110.72
2022-11-12T16:29:54.192Z,100.02
2022-11-12T16:32:41.470Z,107.17
2022-11-12T16:35:31.505Z,87.47
2022-11-12T16:38:19.384Z,107.50
2022-11-12T16:41:06.858Z,64.67
2022-11-12T16:43:54.077Z,87.05
2022-11-12T16:46:41.473Z,85.42
2022-11-12T16:49:28.552Z,84.10
2022-11-12T16:52:15.848Z,61.90
2022-11-12T16:55:04.947Z,59.40
2022-11-12T16:57:53.284Z,59.73
2022-11-12T17:00:43.727Z,71.55
2022-11-12T17:03:31.076Z,53.13
2022-11-12T17:06:18.393Z,42.53
2022-11-12T17:09:07.322Z,68.65
2022-11-12T17:11:54.941Z,60.30
2022-11-12T17:14:42.434Z,55.20
2022-11-12T17:17:29.661Z,58.33
2022-11-12T17:20:17.162Z,58.52
2022-11-12T17:23:04.452Z,58.98
2022-11-12T17:25:54.722Z,74.65
2022-11-12T17:28:41.847Z,60.17
2022-11-12T17:31:29.185Z,61.37
2022-11-12T17:34:16.758Z,46.88
2022-11-12T17:37:04.284Z,49.80
2022-11-12T17:39:51.764Z,49.00
2022-11-12T17:42:39.261Z,54.38
2022-11-12T17:45:26.426Z,36.17
2022-11-12T17:48:13.627Z,57.73
2022-11-12T17:51:15.720Z,51.63
2022-11-12T17:54:03.128Z,42.78
2022-11-12T17:56:50.600Z,37.28
2022-11-12T17:59:37.745Z,49.73
2022-11-12T18:02:25.348Z,43.17
2022-11-12T18:05:12.536Z,59.65
2022-11-12T18:07:59.878Z,47.83
2022-11-12T18:10:47.446Z,59.95
2022-11-12T18:13:34.748Z,74.42
2022-11-12T18:16:28.213Z,61.92
2022-11-12T18:19:15.662Z,61.88
2022-11-12T18:22:03.166Z,48.23
2022-11-12T18:24:52.379Z,59.30
2022-11-12T18:27:41.043Z,46.40
2022-11-12T18:30:28.207Z,40.38
2022-11-12T18:33:15.759Z,40.15
2022-11-12T18:36:06.076Z,29.60
2022-11-12T18:38:55.289Z,48.35
2022-11-12T18:41:42.415Z,48.75
2022-11-12T18:44:29.771Z,59.53
2022-11-12T18:47:17.217Z,50.05
2022-11-12T18:50:08.626Z,39.20
2022-11-12T18:52:53.860Z,50.35
2022-11-12T18:55:41.358Z,60.78
2022-11-12T18:58:34.954Z,48.92
2022-11-12T19:01:21.609Z,98.92
2022-11-12T19:04:10.589Z,65.87
2022-11-12T19:06:58.007Z,48.95
2022-11-12T19:09:48.092Z,42.67
2022-11-12T19:12:35.263Z,42.70
2022-11-12T19:15:26.570Z,57.95
2022-11-12T19:18:11.793Z,45.48
2022-11-12T19:21:04.335Z,34.25
2022-11-12T19:23:54.565Z,40.58
2022-11-12T19:26:41.975Z,46.13
2022-11-12T19:29:29.215Z,36.45
2022-11-12T19:32:17.078Z,62.23
2022-11-12T19:35:04.347Z,37.20
2022-11-12T19:37:51.424Z,35.50
2022-11-12T19:40:38.642Z,35.15
2022-11-12T19:43:26.181Z,37.00
2022-11-12T19:46:13.509Z,32.58
2022-11-12T19:49:01.018Z,31.95
2022-11-12T19:51:48.786Z,34.27
2022-11-12T19:54:36.279Z,41.63
2022-11-12T19:57:23.775Z,43.25
2022-11-12T20:00:11.757Z,39.13
2022-11-12T20:03:00.094Z,37.90
2022-11-12T20:05:47.582Z,36.53
2022-11-12T20:08:35.634Z,32.25
2022-11-12T20:11:22.779Z,37.73
2022-11-12T20:14:10.075Z,33.85
2022-11-12T20:16:57.588Z,41.48
2022-11-12T20:19:44.821Z,40.30
2022-11-12T20:22:32.818Z,36.20
2022-11-12T20:25:19.993Z,37.35
2022-11-12T20:28:08.021Z,38.63
2022-11-12T20:31:00.543Z,35.40
2022-11-12T20:33:49.762Z,33.92
2022-11-12T20:36:37.765Z,33.85
2022-11-12T20:39:25.188Z,31.62
2022-11-12T20:42:12.743Z,30.23
2022-11-12T20:44:59.986Z,30.25
2022-11-12T20:47:47.760Z,32.55
2022-11-12T20:50:36.918Z,28.70
2022-11-12T20:53:24.165Z,34.30
2022-11-12T20:56:14.411Z,38.73
2022-11-12T20:59:02.171Z,39.15
2022-11-12T21:01:49.828Z,39.45
2022-11-12T21:04:37.364Z,37.13
2022-11-12T21:07:24.842Z,35.90
2022-11-12T21:10:12.200Z,40.50
2022-11-12T21:12:59.642Z,42.43
2022-11-12T21:15:47.262Z,46.73
2022-11-12T21:18:36.136Z,45.17
2022-11-12T21:21:23.843Z,50.80
2022-11-12T21:24:12.678Z,41.68
2022-11-12T21:27:00.055Z,46.35
2022-11-12T21:29:47.553Z,50.55
2022-11-12T21:32:35.258Z,50.58
2022-11-12T21:35:22.435Z,48.38
2022-11-12T21:38:09.476Z,48.92
2022-11-12T21:41:03.009Z,46.18
2022-11-12T21:43:51.063Z,45.03
2022-11-12T21:46:40.323Z,44.63
2022-11-12T21:49:27.744Z,41.35
2022-11-12T21:52:14.882Z,39.33
2022-11-12T21:55:02.333Z,36.40
2022-11-12T21:57:50.029Z,33.30
2022-11-12T22:00:42.092Z,36.55
2022-11-12T22:03:25.868Z,34.43
2022-11-12T22:06:14.265Z,35.25
2022-11-12T22:09:01.603Z,32.65
2022-11-12T22:11:48.970Z,33.63
2022-11-12T22:14:36.192Z,30.05
2022-11-12T22:17:23.761Z,31.17
2022-11-12T22:20:11.227Z,29.98
2022-11-12T22:22:58.709Z,31.27
2022-11-12T22:25:46.193Z,27.80
2022-11-12T22:28:34.496Z,28.38
2022-11-12T22:31:24.800Z,27.32
2022-11-12T22:34:12.139Z,31.15
2022-11-12T22:36:59.303Z,29.80
2022-11-12T22:39:46.754Z,31.55
2022-11-12T22:42:34.199Z,32.48
2022-11-12T22:45:21.481Z,33.75
2022-11-12T22:48:09.094Z,38.05
2022-11-12T22:51:02.172Z,40.30
2022-11-12T22:53:51.143Z,33.28
2022-11-12T22:56:39.787Z,39.35
2022-11-12T22:59:27.033Z,33.05
2022-11-12T23:02:14.175Z,34.48
2022-11-12T23:05:01.601Z,32.58
2022-11-12T23:07:49.094Z,36.13
2022-11-12T23:10:40.395Z,39.40
2022-11-12T23:13:27.460Z,35.85
2022-11-12T23:16:21.303Z,34.98
2022-11-12T23:19:08.699Z,31.73
2022-11-12T23:21:55.904Z,33.95
2022-11-12T23:24:43.149Z,33.23
2022-11-12T23:27:30.451Z,35.08
2022-11-12T23:30:18.278Z,37.03
2022-11-12T23:33:05.504Z,36.75
2022-11-12T23:35:52.701Z,37.13
2022-11-12T23:38:40.422Z,32.55
2022-11-12T23:41:28.602Z,35.17
2022-11-12T23:44:15.742Z,32.33
2022-11-12T23:47:03.245Z,33.23
2022-11-12T23:49:50.746Z,33.08
2022-11-12T23:52:38.032Z,32.30
2022-11-12T23:55:28.623Z,31.77
2022-11-12T23:58:13.838Z,33.53
